Time;durP1;ratioP1;P1;durP2;ratioP2;P2;SDS_P1;SDS_P2;PMS_P1;PMS_P2;Temp;Humidity;BMP_temperature;BMP_pressure;BME280_temperature;BME280_humidity;BME280_pressure;Samples;Min_cycle;Max_cycle;Signal;HPM_P1;HPM_P2
2023/09/04 00:03:49;;;;;;;;;;;23.20;59.10;;;;;;8495510;27;19912;-47
2023/09/04 00:07:50;;;;;;;;;;;23.20;59.00;;;;;;8495285;27;19912;-47
2023/09/04 00:11:50;;;;;;;;;;;23.20;59.00;;;;;;8495027;27;20272;-47
2023/09/04 00:15:55;;;;;;;;;;;23.20;59.00;;;;;;8494913;27;19941;-47
2023/09/04 00:19:55;;;;;;;;;;;23.20;59.00;;;;;;8495130;27;19919;-50
2023/09/04 00:23:56;;;;;;;;;;;23.20;59.00;;;;;;8494758;27;19914;-47
2023/09/04 00:27:57;;;;;;;;;;;23.20;58.90;;;;;;8495166;27;19911;-49
2023/09/04 00:31:58;;;;;;;;;;;23.20;59.00;;;;;;8494662;27;20384;-47
2023/09/04 00:35:59;;;;;;;;;;;23.20;58.90;;;;;;8493900;27;20296;-47
2023/09/04 00:40:00;;;;;;;;;;;23.20;59.00;;;;;;8476129;27;20321;-48
2023/09/04 00:44:01;;;;;;;;;;;23.20;58.90;;;;;;8476072;28;19932;-47
2023/09/04 00:48:02;;;;;;;;;;;23.10;58.80;;;;;;8494394;28;19912;-47
2023/09/04 00:52:05;;;;;;;;;;;23.20;58.90;;;;;;8494886;28;19915;-47
2023/09/04 00:56:06;;;;;;;;;;;23.20;58.60;;;;;;8476203;27;19926;-46
2023/09/04 01:00:10;;;;;;;;;;;23.20;58.90;;;;;;8494125;28;20447;-50
2023/09/04 01:04:31;;;;;;;;;;;23.20;58.90;;;;;;8494108;28;20268;-47
2023/09/04 01:08:32;;;;;;;;;;;23.10;58.80;;;;;;8482840;28;19915;-47
2023/09/04 01:12:42;;;;;;;;;;;23.10;58.80;;;;;;8494220;28;19947;-47
2023/09/04 01:16:42;;;;;;;;;;;23.10;58.90;;;;;;8494020;28;19933;-48
2023/09/04 01:20:43;;;;;;;;;;;23.10;58.80;;;;;;8493748;28;19930;-47
2023/09/04 01:24:46;;;;;;;;;;;23.10;58.80;;;;;;8475777;27;20279;-47
2023/09/04 01:29:05;;;;;;;;;;;23.10;58.40;;;;;;8493554;28;19911;-46
2023/09/04 01:33:09;;;;;;;;;;;23.10;58.80;;;;;;8494020;28;19924;-46
2023/09/04 01:37:11;;;;;;;;;;;23.10;58.70;;;;;;8509733;27;19907;-47
2023/09/04 01:41:12;;;;;;;;;;;23.20;58.80;;;;;;8493590;28;19915;-47
2023/09/04 01:45:12;;;;;;;;;;;23.10;58.40;;;;;;8493439;28;20002;-48
2023/09/04 01:49:13;;;;;;;;;;;23.10;58.80;;;;;;8480943;27;19939;-46
2023/09/04 01:53:13;;;;;;;;;;;23.10;58.80;;;;;;8499475;27;19920;-48
2023/09/04 01:57:14;;;;;;;;;;;23.10;58.80;;;;;;8499587;27;20364;-48
2023/09/04 02:01:14;;;;;;;;;;;23.10;58.80;;;;;;8481384;27;19939;-47
2023/09/04 02:05:15;;;;;;;;;;;23.10;58.70;;;;;;8480850;27;19961;-46
2023/09/04 02:09:15;;;;;;;;;;;23.10;58.70;;;;;;8499125;27;19932;-47
2023/09/04 02:13:16;;;;;;;;;;;23.10;58.70;;;;;;8499369;27;20428;-46
2023/09/04 02:17:17;;;;;;;;;;;23.20;58.80;;;;;;8499288;27;20288;-49
2023/09/04 02:21:17;;;;;;;;;;;23.10;58.70;;;;;;8498773;27;20464;-46
2023/09/04 02:25:18;;;;;;;;;;;23.10;58.70;;;;;;8480777;27;19915;-49
2023/09/04 02:29:18;;;;;;;;;;;23.10;58.70;;;;;;8480179;27;19911;-47
2023/09/04 02:33:19;;;;;;;;;;;23.10;58.70;;;;;;8498234;27;19915;-47
2023/09/04 02:37:20;;;;;;;;;;;23.10;58.60;;;;;;8498840;27;20360;-46
2023/09/04 02:41:20;;;;;;;;;;;23.10;58.60;;;;;;8497885;27;20040;-47
2023/09/04 02:45:21;;;;;;;;;;;23.10;58.60;;;;;;8498041;27;20291;-48
2023/09/04 02:49:22;;;;;;;;;;;23.10;58.60;;;;;;8498421;27;19914;-48
2023/09/04 02:53:22;;;;;;;;;;;23.10;58.60;;;;;;8497503;27;19915;-46
2023/09/04 02:57:23;;;;;;;;;;;23.10;58.60;;;;;;8497532;27;19912;-46
2023/09/04 03:01:24;;;;;;;;;;;23.10;58.60;;;;;;8497764;27;19918;-47
2023/09/04 03:05:25;;;;;;;;;;;23.10;58.60;;;;;;8497415;27;19929;-46
2023/09/04 03:09:25;;;;;;;;;;;23.10;58.60;;;;;;8497164;27;19920;-48
2023/09/04 03:13:26;;;;;;;;;;;23.10;58.60;;;;;;8478321;27;19915;-47
2023/09/04 03:17:29;;;;;;;;;;;23.10;58.60;;;;;;8497515;27;19922;-46
2023/09/04 03:21:32;;;;;;;;;;;23.10;58.60;;;;;;8496697;27;19920;-48
2023/09/04 03:25:33;;;;;;;;;;;23.10;58.60;;;;;;8496998;27;19961;-46
2023/09/04 03:29:33;;;;;;;;;;;23.10;58.60;;;;;;8496492;27;19912;-47
2023/09/04 03:33:34;;;;;;;;;;;23.10;58.50;;;;;;8496383;27;19964;-47
2023/09/04 03:37:35;;;;;;;;;;;23.10;58.50;;;;;;8496262;27;19912;-47
2023/09/04 03:41:36;;;;;;;;;;;23.10;58.50;;;;;;8495931;27;19919;-46
2023/09/04 03:45:36;;;;;;;;;;;23.10;58.50;;;;;;8496258;27;19911;-46
2023/09/04 03:49:37;;;;;;;;;;;23.10;58.50;;;;;;8495752;27;19912;-47
2023/09/04 03:53:38;;;;;;;;;;;23.10;58.50;;;;;;8495983;27;19911;-48
2023/09/04 03:57:42;;;;;;;;;;;23.10;58.50;;;;;;8495915;27;19915;-46
2023/09/04 04:01:43;;;;;;;;;;;23.10;58.50;;;;;;8495374;27;20306;-46
2023/09/04 04:05:44;;;;;;;;;;;23.10;58.50;;;;;;8495356;27;19908;-48
2023/09/04 04:09:47;;;;;;;;;;;23.10;58.50;;;;;;8494363;27;19964;-46
2023/09/04 04:13:47;;;;;;;;;;;23.10;58.50;;;;;;8494941;27;19915;-47
2023/09/04 04:17:48;;;;;;;;;;;23.10;58.60;;;;;;8476539;27;19988;-46
2023/09/04 04:21:49;;;;;;;;;;;23.10;58.60;;;;;;8494637;27;19955;-46
2023/09/04 04:25:50;;;;;;;;;;;23.10;58.60;;;;;;8495252;27;19911;-47
2023/09/04 04:29:55;;;;;;;;;;;23.10;58.60;;;;;;8476240;27;20022;-46
2023/09/04 04:33:55;;;;;;;;;;;23.10;58.50;;;;;;8494593;27;19927;-46
2023/09/04 04:37:56;;;;;;;;;;;23.10;58.50;;;;;;8494521;27;20420;-46
2023/09/04 04:41:56;;;;;;;;;;;23.10;58.50;;;;;;8494772;27;20006;-46
2023/09/04 04:45:57;;;;;;;;;;;23.10;58.50;;;;;;8494438;28;19915;-46
2023/09/04 04:49:57;;;;;;;;;;;23.10;58.50;;;;;;8494451;28;20295;-48
2023/09/04 04:53:58;;;;;;;;;;;23.10;58.50;;;;;;8494135;28;19940;-46
2023/09/04 04:57:59;;;;;;;;;;;23.10;58.50;;;;;;8494314;27;19980;-46
2023/09/04 05:02:00;;;;;;;;;;;23.10;58.50;;;;;;8494182;28;19918;-47
2023/09/04 05:06:00;;;;;;;;;;;23.10;58.50;;;;;;8510165;27;19912;-48
2023/09/04 05:10:01;;;;;;;;;;;23.10;58.20;;;;;;8494150;28;19911;-47
2023/09/04 05:14:01;;;;;;;;;;;23.10;58.50;;;;;;8493965;28;20439;-47
2023/09/04 05:18:03;;;;;;;;;;;23.10;58.50;;;;;;8494071;28;20406;-48
2023/09/04 05:22:04;;;;;;;;;;;23.10;58.50;;;;;;8477502;27;19924;-47
2023/09/04 05:26:04;;;;;;;;;;;23.00;58.40;;;;;;8500603;27;19912;-46
2023/09/04 05:30:05;;;;;;;;;;;23.10;58.40;;;;;;8500447;27;20574;-47
2023/09/04 05:34:06;;;;;;;;;;;23.10;58.50;;;;;;8500142;27;19919;-46
2023/09/04 05:38:06;;;;;;;;;;;23.10;58.50;;;;;;8501252;27;20367;-46
2023/09/04 05:42:07;;;;;;;;;;;23.00;58.40;;;;;;8500113;27;19957;-47
2023/09/04 05:46:07;;;;;;;;;;;23.00;58.40;;;;;;8499948;27;19918;-46
2023/09/04 05:50:09;;;;;;;;;;;23.00;58.40;;;;;;8500206;27;19917;-46
2023/09/04 05:54:10;;;;;;;;;;;23.10;58.50;;;;;;8499699;27;19911;-46
2023/09/04 05:58:11;;;;;;;;;;;23.10;58.50;;;;;;8499835;27;19945;-46
2023/09/04 06:02:12;;;;;;;;;;;23.00;58.40;;;;;;8499450;27;19965;-47
2023/09/04 06:06:13;;;;;;;;;;;23.10;58.40;;;;;;8499710;27;19907;-46
2023/09/04 06:10:13;;;;;;;;;;;23.00;58.40;;;;;;8499132;27;19907;-46
2023/09/04 06:14:14;;;;;;;;;;;23.00;58.40;;;;;;8499115;27;20412;-45
2023/09/04 06:18:15;;;;;;;;;;;23.10;58.40;;;;;;8499352;27;19912;-49
2023/09/04 06:22:15;;;;;;;;;;;23.10;58.40;;;;;;8498596;27;19931;-46
2023/09/04 06:26:16;;;;;;;;;;;23.10;58.40;;;;;;8498971;27;19953;-47
2023/09/04 06:30:17;;;;;;;;;;;23.10;56.20;;;;;;8498404;27;19911;-46
2023/09/04 06:34:17;;;;;;;;;;;23.10;58.20;;;;;;8479098;27;20482;-47
2023/09/04 06:38:18;;;;;;;;;;;23.10;58.30;;;;;;8498225;27;20395;-47
2023/09/04 06:42:18;;;;;;;;;;;23.00;58.20;;;;;;8498158;27;19918;-46
2023/09/04 06:46:19;;;;;;;;;;;23.00;58.30;;;;;;8497727;27;19912;-46
2023/09/04 06:50:19;;;;;;;;;;;23.00;58.20;;;;;;8497917;27;19911;-47
2023/09/04 06:54:20;;;;;;;;;;;23.00;58.20;;;;;;8497698;27;19915;-47
2023/09/04 06:58:20;;;;;;;;;;;23.00;58.30;;;;;;8497946;27;19912;-46
2023/09/04 07:02:21;;;;;;;;;;;23.10;58.20;;;;;;8497401;27;19936;-47
2023/09/04 07:06:21;;;;;;;;;;;23.00;58.10;;;;;;8497302;27;20377;-48
2023/09/04 07:10:22;;;;;;;;;;;23.00;58.20;;;;;;8478802;27;19958;-46
2023/09/04 07:14:23;;;;;;;;;;;23.00;58.20;;;;;;8496913;27;19915;-47
2023/09/04 07:18:23;;;;;;;;;;;23.00;58.20;;;;;;8496931;27;19925;-47
2023/09/04 07:22:26;;;;;;;;;;;23.00;57.60;;;;;;8496490;27;19927;-46
2023/09/04 07:26:27;;;;;;;;;;;23.00;57.60;;;;;;8496803;27;20011;-46
2023/09/04 07:30:27;;;;;;;;;;;23.00;56.60;;;;;;8496389;27;20365;-47
2023/09/04 07:34:28;;;;;;;;;;;23.00;58.10;;;;;;8496265;27;19923;-46
2023/09/04 07:38:31;;;;;;;;;;;23.00;58.00;;;;;;8496227;27;19914;-46
2023/09/04 07:42:31;;;;;;;;;;;23.10;58.20;;;;;;8496333;27;19960;-47
2023/09/04 07:46:32;;;;;;;;;;;23.00;58.10;;;;;;8495906;27;19907;-47
2023/09/04 07:50:33;;;;;;;;;;;23.00;58.10;;;;;;8495825;27;19919;-47
2023/09/04 07:54:33;;;;;;;;;;;23.00;58.00;;;;;;8496005;27;19912;-47
2023/09/04 07:58:34;;;;;;;;;;;23.10;58.00;;;;;;8495769;27;19914;-47
2023/09/04 08:02:34;;;;;;;;;;;23.00;57.90;;;;;;8495265;27;19917;-47
2023/09/04 08:06:35;;;;;;;;;;;23.00;58.00;;;;;;8477174;27;19926;-46
2023/09/04 08:10:41;;;;;;;;;;;23.00;58.00;;;;;;8476682;27;19915;-46
2023/09/04 08:14:43;;;;;;;;;;;23.00;58.00;;;;;;8476739;27;20284;-46
2023/09/04 08:18:44;;;;;;;;;;;23.00;58.10;;;;;;8494987;27;19911;-46
2023/09/04 08:22:46;;;;;;;;;;;23.00;58.00;;;;;;8494863;27;19927;-46
2023/09/04 08:26:50;;;;;;;;;;;23.00;58.00;;;;;;8496025;27;19912;-47
2023/09/04 08:30:50;;;;;;;;;;;23.00;57.90;;;;;;8496728;27;20357;-46
2023/09/04 08:34:51;;;;;;;;;;;23.00;58.00;;;;;;8477510;27;19938;-49
2023/09/04 08:38:51;;;;;;;;;;;23.00;58.00;;;;;;8497466;27;20260;-46
2023/09/04 08:42:54;;;;;;;;;;;23.00;57.50;;;;;;8495820;27;20095;-46
2023/09/04 08:46:56;;;;;;;;;;;23.10;58.00;;;;;;8496988;28;19952;-46
2023/09/04 08:50:56;;;;;;;;;;;23.00;57.90;;;;;;8496350;28;19918;-47
2023/09/04 08:54:57;;;;;;;;;;;23.00;57.80;;;;;;8496544;27;19911;-46
2023/09/04 08:58:58;;;;;;;;;;;23.00;57.90;;;;;;8501684;27;19915;-46
2023/09/04 09:02:58;;;;;;;;;;;23.10;58.00;;;;;;8502002;27;19941;-48
2023/09/04 09:07:01;;;;;;;;;;;23.00;57.90;;;;;;8484389;27;20292;-49
2023/09/04 09:11:03;;;;;;;;;;;23.00;57.80;;;;;;8502184;27;20215;-47
2023/09/04 09:15:04;;;;;;;;;;;23.00;57.80;;;;;;8503858;27;19919;-46
2023/09/04 09:19:04;;;;;;;;;;;23.00;57.90;;;;;;8501934;27;19912;-46
2023/09/04 09:23:05;;;;;;;;;;;23.00;57.80;;;;;;8502918;27;19923;-46
2023/09/04 09:27:05;;;;;;;;;;;23.00;57.80;;;;;;8501976;27;20677;-46
2023/09/04 09:31:06;;;;;;;;;;;23.00;57.80;;;;;;8503101;27;19916;-48
2023/09/04 09:35:07;;;;;;;;;;;23.00;57.80;;;;;;8502012;27;19915;-48
2023/09/04 09:39:08;;;;;;;;;;;23.00;57.80;;;;;;8483319;27;19912;-47
2023/09/04 09:43:09;;;;;;;;;;;23.00;57.70;;;;;;8502480;27;19918;-47
2023/09/04 09:47:36;;;;;;;;;;;23.10;57.80;;;;;;8500825;27;19918;-49
2023/09/04 09:51:37;;;;;;;;;;;23.00;57.70;;;;;;8495246;27;19911;-48
2023/09/04 09:55:38;;;;;;;;;;;23.00;57.70;;;;;;8501106;27;20391;-48
2023/09/04 09:59:42;;;;;;;;;;;23.00;57.70;;;;;;8501980;27;20272;-49
2023/09/04 10:03:44;;;;;;;;;;;23.10;57.80;;;;;;8500828;27;19908;-46
2023/09/04 10:07:46;;;;;;;;;;;23.10;57.70;;;;;;8499752;27;19957;-47
2023/09/04 10:11:51;;;;;;;;;;;23.10;57.70;;;;;;8501548;27;20416;-46
2023/09/04 10:15:52;;;;;;;;;;;23.10;57.70;;;;;;8499943;27;19916;-48
2023/09/04 10:19:53;;;;;;;;;;;23.00;57.60;;;;;;8500910;27;20547;-47
2023/09/04 10:23:59;;;;;;;;;;;23.10;57.70;;;;;;8499652;27;20509;-49
2023/09/04 10:32:54;;;;;;;;;;;23.10;57.80;;;;;;8477238;27;19908;-48
2023/09/04 10:36:55;;;;;;;;;;;23.00;57.70;;;;;;8498289;27;20009;-46
2023/09/04 10:40:56;;;;;;;;;;;23.10;57.70;;;;;;8500859;27;19930;-48
2023/09/04 10:44:57;;;;;;;;;;;23.10;57.70;;;;;;8499041;27;19919;-46
2023/09/04 10:48:58;;;;;;;;;;;23.10;57.60;;;;;;8500113;27;19915;-47
2023/09/04 10:53:02;;;;;;;;;;;23.10;57.60;;;;;;8499444;27;19911;-46
2023/09/04 10:57:08;;;;;;;;;;;23.10;57.70;;;;;;8481485;27;19908;-49
2023/09/04 11:01:34;;;;;;;;;;;23.10;57.60;;;;;;8500034;27;19908;-47
2023/09/04 11:05:55;;;;;;;;;;;23.10;57.60;;;;;;8495292;27;19999;-47
2023/09/04 11:10:01;;;;;;;;;;;23.10;57.60;;;;;;8498886;27;19956;-46
2023/09/04 11:14:03;;;;;;;;;;;23.10;57.60;;;;;;8499615;27;19912;-47
2023/09/04 11:18:12;;;;;;;;;;;23.10;57.50;;;;;;8497992;27;20399;-47
2023/09/04 11:22:18;;;;;;;;;;;23.10;57.60;;;;;;8498580;27;19964;-47
2023/09/04 11:26:19;;;;;;;;;;;23.10;57.60;;;;;;8498728;27;20299;-46
2023/09/04 11:30:20;;;;;;;;;;;23.10;57.60;;;;;;8480240;27;19970;-46
2023/09/04 11:34:21;;;;;;;;;;;23.10;57.50;;;;;;8497645;27;19915;-47
2023/09/04 11:38:26;;;;;;;;;;;23.10;57.50;;;;;;8498348;27;20288;-46
2023/09/04 11:42:27;;;;;;;;;;;23.10;57.50;;;;;;8498323;27;20556;-49
2023/09/04 11:46:28;;;;;;;;;;;23.10;57.50;;;;;;8480030;27;19984;-46
2023/09/04 11:50:28;;;;;;;;;;;23.10;57.50;;;;;;8498251;27;19919;-49
2023/09/04 11:54:29;;;;;;;;;;;23.10;57.50;;;;;;8478907;27;19984;-48
2023/09/04 11:58:30;;;;;;;;;;;23.10;57.50;;;;;;8497898;27;19907;-46
2023/09/04 12:02:30;;;;;;;;;;;23.10;57.50;;;;;;8477851;27;20280;-48
2023/09/04 12:06:33;;;;;;;;;;;23.10;57.40;;;;;;8497972;27;19911;-49
2023/09/04 12:10:35;;;;;;;;;;;23.10;57.40;;;;;;8496581;27;19912;-48
2023/09/04 12:14:42;;;;;;;;;;;23.10;57.40;;;;;;8479074;27;19934;-46
2023/09/04 12:18:43;;;;;;;;;;;23.10;57.40;;;;;;8496834;27;19913;-46
2023/09/04 12:22:53;;;;;;;;;;;23.10;57.40;;;;;;8478278;27;20360;-46
2023/09/04 12:26:54;;;;;;;;;;;23.10;57.30;;;;;;8497468;27;19908;-47
2023/09/04 12:30:54;;;;;;;;;;;23.10;57.40;;;;;;8495389;27;19965;-49
2023/09/04 12:35:03;;;;;;;;;;;23.10;57.40;;;;;;8496771;27;20003;-46
2023/09/04 12:39:04;;;;;;;;;;;23.10;57.30;;;;;;8495916;27;19911;-46
2023/09/04 12:43:05;;;;;;;;;;;23.10;57.30;;;;;;8497003;27;19919;-46
2023/09/04 12:47:06;;;;;;;;;;;23.10;57.30;;;;;;8496374;28;20020;-46
2023/09/04 12:51:07;;;;;;;;;;;23.10;57.30;;;;;;8496322;28;19912;-47
2023/09/04 12:55:08;;;;;;;;;;;23.10;57.30;;;;;;8496557;27;19911;-47
2023/09/04 12:59:08;;;;;;;;;;;23.10;57.30;;;;;;8495812;28;19919;-49
2023/09/04 13:03:09;;;;;;;;;;;23.20;57.30;;;;;;8496697;28;19918;-47
2023/09/04 13:07:10;;;;;;;;;;;23.10;57.30;;;;;;8495819;28;19911;-47
2023/09/04 13:11:10;;;;;;;;;;;23.10;57.20;;;;;;8496633;28;19937;-46
2023/09/04 13:15:11;;;;;;;;;;;23.10;57.20;;;;;;8495264;28;19915;-47
2023/09/04 13:19:13;;;;;;;;;;;23.20;57.30;;;;;;8496242;28;19912;-48
2023/09/04 13:23:14;;;;;;;;;;;23.10;57.20;;;;;;8494870;28;19924;-47
2023/09/04 13:27:14;;;;;;;;;;;23.10;57.20;;;;;;8478151;28;20006;-49
2023/09/04 13:31:18;;;;;;;;;;;23.10;57.20;;;;;;8495023;28;20002;-48
2023/09/04 13:35:24;;;;;;;;;;;23.10;57.20;;;;;;8495040;28;20265;-47
2023/09/04 13:39:24;;;;;;;;;;;23.10;57.10;;;;;;8477619;28;19990;-47
2023/09/04 13:43:27;;;;;;;;;;;23.10;57.10;;;;;;8479090;27;20434;-47
2023/09/04 13:47:28;;;;;;;;;;;23.20;57.10;;;;;;8503230;27;19939;-47
2023/09/04 13:51:29;;;;;;;;;;;23.20;57.00;;;;;;8501223;27;19919;-49
2023/09/04 13:55:30;;;;;;;;;;;23.20;57.00;;;;;;8502383;27;20004;-48
2023/09/04 13:59:30;;;;;;;;;;;23.20;57.10;;;;;;8500963;27;20357;-46
2023/09/04 14:03:31;;;;;;;;;;;23.20;57.00;;;;;;8502274;27;20364;-49
2023/09/04 14:07:31;;;;;;;;;;;23.20;57.00;;;;;;8501198;27;19912;-48
2023/09/04 14:11:32;;;;;;;;;;;23.20;57.00;;;;;;8501304;27;19919;-47
2023/09/04 14:15:32;;;;;;;;;;;23.20;56.90;;;;;;8500842;27;19915;-49
2023/09/04 14:19:33;;;;;;;;;;;23.20;57.00;;;;;;8501064;27;19911;-47
2023/09/04 14:23:34;;;;;;;;;;;23.20;56.90;;;;;;8501157;27;19982;-46
2023/09/04 14:27:34;;;;;;;;;;;23.20;56.90;;;;;;8500292;27;20369;-47
2023/09/04 14:31:35;;;;;;;;;;;23.20;57.00;;;;;;8501972;27;19915;-47
2023/09/04 14:35:36;;;;;;;;;;;23.20;57.00;;;;;;8499618;27;20038;-47
2023/09/04 14:39:38;;;;;;;;;;;23.20;56.80;;;;;;8500529;27;19916;-47
2023/09/04 14:43:38;;;;;;;;;;;23.20;56.90;;;;;;8481217;27;20276;-47
2023/09/04 14:47:39;;;;;;;;;;;23.20;56.80;;;;;;8500274;27;20204;-47
2023/09/04 14:51:39;;;;;;;;;;;23.20;56.80;;;;;;8499731;27;19918;-49
2023/09/04 14:55:40;;;;;;;;;;;23.20;56.80;;;;;;8499228;27;19922;-47
2023/09/04 14:59:41;;;;;;;;;;;23.20;56.70;;;;;;8498919;27;19911;-49
2023/09/04 15:03:42;;;;;;;;;;;23.20;56.60;;;;;;8481440;27;20335;-46
2023/09/04 15:07:43;;;;;;;;;;;23.20;56.80;;;;;;8499859;27;19911;-49
2023/09/04 15:11:44;;;;;;;;;;;23.20;56.80;;;;;;8498181;27;19908;-49
2023/09/04 15:15:45;;;;;;;;;;;23.20;56.80;;;;;;8499713;27;20352;-46
2023/09/04 15:19:45;;;;;;;;;;;23.20;56.80;;;;;;8498028;27;19941;-49
2023/09/04 15:23:46;;;;;;;;;;;23.20;56.80;;;;;;8499294;27;19928;-49
2023/09/04 15:27:46;;;;;;;;;;;23.20;56.80;;;;;;8498011;27;19919;-46
2023/09/04 15:31:47;;;;;;;;;;;23.20;56.90;;;;;;8499295;27;19918;-46
2023/09/04 15:35:47;;;;;;;;;;;23.20;57.00;;;;;;8497909;27;19915;-46
2023/09/04 15:39:48;;;;;;;;;;;23.20;56.90;;;;;;8498102;27;20010;-46
2023/09/04 15:43:48;;;;;;;;;;;23.20;56.90;;;;;;8497968;27;19970;-47
2023/09/04 15:47:50;;;;;;;;;;;23.20;56.90;;;;;;8497508;27;19912;-48
2023/09/04 15:51:50;;;;;;;;;;;23.20;56.90;;;;;;8480105;27;19919;-47
2023/09/04 15:55:54;;;;;;;;;;;23.20;56.90;;;;;;8497047;27;20006;-49
2023/09/04 15:59:55;;;;;;;;;;;23.20;56.90;;;;;;8498118;27;19954;-49
2023/09/04 16:03:55;;;;;;;;;;;23.20;56.90;;;;;;8496897;27;19911;-47
2023/09/04 16:07:56;;;;;;;;;;;23.20;56.90;;;;;;8479394;27;19911;-46
2023/09/04 16:11:57;;;;;;;;;;;23.20;56.90;;;;;;8512601;27;19950;-46
2023/09/04 16:15:57;;;;;;;;;;;23.20;56.90;;;;;;8513564;27;19915;-47
2023/09/04 16:19:58;;;;;;;;;;;23.20;56.90;;;;;;8497184;27;19973;-46
2023/09/04 16:23:58;;;;;;;;;;;23.20;56.80;;;;;;8496654;27;20395;-48
2023/09/04 16:27:59;;;;;;;;;;;23.20;56.80;;;;;;8479273;27;19911;-46
2023/09/04 16:32:00;;;;;;;;;;;23.20;56.90;;;;;;8477721;27;20318;-46
2023/09/04 16:36:01;;;;;;;;;;;23.20;56.90;;;;;;8478660;27;20326;-47
2023/09/04 16:40:02;;;;;;;;;;;23.20;56.80;;;;;;8495868;27;19918;-47
2023/09/04 16:44:02;;;;;;;;;;;23.20;56.90;;;;;;8497066;27;19911;-48
2023/09/04 16:48:04;;;;;;;;;;;23.20;56.80;;;;;;8495555;27;20292;-50
2023/09/04 16:52:05;;;;;;;;;;;23.20;56.90;;;;;;8496556;28;19908;-47
2023/09/04 16:56:05;;;;;;;;;;;23.20;56.80;;;;;;8496680;27;19922;-46
2023/09/04 17:00:08;;;;;;;;;;;23.20;56.80;;;;;;8496627;28;19965;-46
2023/09/04 17:04:09;;;;;;;;;;;23.20;56.80;;;;;;8495881;28;19911;-47
2023/09/04 17:08:09;;;;;;;;;;;23.20;56.80;;;;;;8495899;28;19960;-47
2023/09/04 17:12:10;;;;;;;;;;;23.20;56.80;;;;;;8496396;28;20302;-47
2023/09/04 17:16:10;;;;;;;;;;;23.20;56.80;;;;;;8495326;27;20334;-48
2023/09/04 17:20:11;;;;;;;;;;;23.20;56.80;;;;;;8502139;27;19931;-46
2023/09/04 17:24:12;;;;;;;;;;;23.20;56.80;;;;;;8501781;27;20308;-46
2023/09/04 17:28:12;;;;;;;;;;;23.20;56.80;;;;;;8503238;27;20284;-47
2023/09/04 17:32:13;;;;;;;;;;;23.20;56.80;;;;;;8501760;27;19919;-47
2023/09/04 17:36:13;;;;;;;;;;;23.20;56.80;;;;;;8502473;27;19915;-47
2023/09/04 17:40:14;;;;;;;;;;;23.20;56.80;;;;;;8501736;27;19925;-47
2023/09/04 17:44:14;;;;;;;;;;;23.20;56.80;;;;;;8484007;27;19907;-46
2023/09/04 17:48:15;;;;;;;;;;;23.20;56.70;;;;;;8501491;27;19919;-47
2023/09/04 17:52:15;;;;;;;;;;;23.20;56.70;;;;;;8483213;27;20368;-47
2023/09/04 17:56:19;;;;;;;;;;;23.20;56.70;;;;;;8502368;27;20356;-46
2023/09/04 18:00:20;;;;;;;;;;;23.20;56.80;;;;;;8500874;27;19911;-47
2023/09/04 18:04:20;;;;;;;;;;;23.20;56.80;;;;;;8501711;27;19936;-46
2023/09/04 18:08:22;;;;;;;;;;;23.20;56.80;;;;;;8500426;27;19912;-46
2023/09/04 18:12:22;;;;;;;;;;;23.20;56.80;;;;;;8527582;27;20372;-49
2023/09/04 18:16:23;;;;;;;;;;;23.20;56.80;;;;;;8534279;27;20352;-47
2023/09/04 18:20:23;;;;;;;;;;;23.20;56.80;;;;;;8535235;27;19927;-46
2023/09/04 18:24:24;;;;;;;;;;;23.20;56.80;;;;;;8534664;27;19911;-46
2023/09/04 18:28:24;;;;;;;;;;;23.20;56.80;;;;;;8500205;27;20375;-47
2023/09/04 18:32:25;;;;;;;;;;;23.20;56.80;;;;;;8499863;27;19912;-47
2023/09/04 18:36:25;;;;;;;;;;;23.20;56.80;;;;;;8500132;27;19919;-48
2023/09/04 18:40:26;;;;;;;;;;;23.20;56.80;;;;;;8482122;27;19915;-47
2023/09/04 18:44:27;;;;;;;;;;;23.20;56.80;;;;;;8499599;27;19922;-48
2023/09/04 18:48:27;;;;;;;;;;;23.20;56.80;;;;;;8499908;27;19915;-46
2023/09/04 18:52:29;;;;;;;;;;;23.20;56.70;;;;;;8498950;27;19912;-46
2023/09/04 18:56:30;;;;;;;;;;;23.20;56.70;;;;;;8499986;27;20245;-48
2023/09/04 19:00:31;;;;;;;;;;;23.20;56.70;;;;;;8498590;27;19908;-47
2023/09/04 19:04:31;;;;;;;;;;;23.20;56.70;;;;;;8481828;27;19914;-50
2023/09/04 19:08:32;;;;;;;;;;;23.20;56.70;;;;;;8511356;27;19913;-48
2023/09/04 19:12:32;;;;;;;;;;;23.20;57.00;;;;;;8527592;27;19965;-47
2023/09/04 19:16:33;;;;;;;;;;;23.30;56.90;;;;;;8527223;27;19923;-46
2023/09/04 19:20:34;;;;;;;;;;;23.30;57.10;;;;;;8531052;27;19930;-45
2023/09/04 19:24:34;;;;;;;;;;;23.30;57.20;;;;;;8544008;27;19926;-47
2023/09/04 19:28:35;;;;;;;;;;;23.40;57.40;;;;;;8543101;27;19972;-48
2023/09/04 19:32:36;;;;;;;;;;;23.40;57.80;;;;;;8544671;27;20562;-50
2023/09/04 19:36:36;;;;;;;;;;;23.40;57.60;;;;;;8542916;27;19915;-50
2023/09/04 19:40:37;;;;;;;;;;;23.40;57.70;;;;;;8523002;27;19926;-51
2023/09/04 19:44:37;;;;;;;;;;;23.40;57.90;;;;;;8542737;27;19965;-47
2023/09/04 19:48:38;;;;;;;;;;;23.40;57.70;;;;;;8543673;27;19915;-49
2023/09/04 19:52:38;;;;;;;;;;;23.40;57.80;;;;;;8543180;27;19955;-46
2023/09/04 19:56:41;;;;;;;;;;;23.40;57.70;;;;;;8542250;27;19937;-48
2023/09/04 20:00:41;;;;;;;;;;;23.40;57.50;;;;;;8540158;27;19911;-46
2023/09/04 20:04:42;;;;;;;;;;;23.40;57.60;;;;;;8540478;27;20449;-47
2023/09/04 20:08:42;;;;;;;;;;;23.40;57.40;;;;;;8542446;27;20318;-45
2023/09/04 20:12:43;;;;;;;;;;;23.50;57.20;;;;;;8542544;27;19913;-46
2023/09/04 20:16:43;;;;;;;;;;;23.50;56.80;;;;;;8542815;27;20027;-46
2023/09/04 20:20:44;;;;;;;;;;;23.50;56.70;;;;;;8532614;27;19969;-48
2023/09/04 20:24:44;;;;;;;;;;;23.60;56.70;;;;;;8508231;27;19927;-49
2023/09/04 20:28:45;;;;;;;;;;;23.50;57.00;;;;;;8508686;27;19944;-48
2023/09/04 20:32:45;;;;;;;;;;;23.50;56.80;;;;;;8490001;27;20372;-50
2023/09/04 20:36:47;;;;;;;;;;;23.60;57.70;;;;;;8490267;27;19919;-48
2023/09/04 20:40:52;;;;;;;;;;;23.60;57.30;;;;;;8507924;27;20376;-47
2023/09/04 20:44:52;;;;;;;;;;;23.60;57.10;;;;;;8508010;27;19968;-47
2023/09/04 20:48:53;;;;;;;;;;;23.60;56.30;;;;;;8508219;27;19956;-49
2023/09/04 20:52:53;;;;;;;;;;;23.60;57.30;;;;;;8507000;27;20427;-47
2023/09/04 20:56:54;;;;;;;;;;;23.70;56.90;;;;;;8488900;27;19915;-47
2023/09/04 21:00:54;;;;;;;;;;;23.70;57.00;;;;;;8507705;27;19926;-47
2023/09/04 21:04:55;;;;;;;;;;;23.70;55.80;;;;;;8508027;27;19912;-50
2023/09/04 23:22:35;;;;;;;;;;;23.60;56.60;;;;;;8496819;27;19924;-46
2023/09/04 23:26:37;;;;;;;;;;;23.50;56.60;;;;;;8497148;27;19914;-45
2023/09/04 23:30:37;;;;;;;;;;;23.50;56.70;;;;;;8496719;27;19946;-49
2023/09/04 23:34:38;;;;;;;;;;;23.50;56.90;;;;;;8496300;27;19916;-48
2023/09/04 23:39:06;;;;;;;;;;;23.50;57.00;;;;;;8512298;27;19911;-47
2023/09/04 23:47:26;;;;;;;;;;;23.50;57.00;;;;;;8496433;27;19912;-48
2023/09/04 23:51:26;;;;;;;;;;;23.50;56.90;;;;;;8496521;27;20393;-48
2023/09/04 23:55:27;;;;;;;;;;;23.50;56.50;;;;;;8496254;27;20336;-48
2023/09/04 23:59:28;;;;;;;;;;;23.50;57.00;;;;;;8495722;27;19958;-49
